sensor_id;sensor_type;location;lat;lon;timestamp;P1;durP1;ratioP1;P2;durP2;ratioP2
53674;SDS011;39574;50.534;8.500;2023-08-06T00:01:43;8.6;;;3.5;;
53674;SDS011;39574;50.534;8.500;2023-08-06T00:06:43;7.6;;;3.6;;
53674;SDS011;39574;50.534;8.500;2023-08-06T00:11:42;7.7;;;3.6;;
53674;SDS011;39574;50.534;8.500;2023-08-06T00:16:42;7.4;;;3.8;;
53674;SDS011;39574;50.534;8.500;2023-08-06T00:21:41;8.2;;;3.9;;
53674;SDS011;39574;50.534;8.500;2023-08-06T00:26:40;7.6;;;3.8;;
53674;SDS011;39574;50.534;8.500;2023-08-06T00:31:39;7.8;;;3.9;;
53674;SDS011;39574;50.534;8.500;2023-08-06T00:36:39;7.8;;;4.0;;
53674;SDS011;39574;50.534;8.500;2023-08-06T00:41:38;8.3;;;4.1;;
53674;SDS011;39574;50.534;8.500;2023-08-06T00:46:37;8.4;;;4.2;;
53674;SDS011;39574;50.534;8.500;2023-08-06T00:51:37;8.1;;;4.0;;
53674;SDS011;39574;50.534;8.500;2023-08-06T00:56:36;7.2;;;3.8;;
53674;SDS011;39574;50.534;8.500;2023-08-06T01:01:35;6.9;;;3.5;;
53674;SDS011;39574;50.534;8.500;2023-08-06T01:06:39;6.2;;;3.3;;
53674;SDS011;39574;50.534;8.500;2023-08-06T01:11:38;6.4;;;3.1;;
53674;SDS011;39574;50.534;8.500;2023-08-06T01:16:33;6.0;;;3.0;;
53674;SDS011;39574;50.534;8.500;2023-08-06T01:21:33;5.9;;;3.0;;
53674;SDS011;39574;50.534;8.500;2023-08-06T01:26:33;6.0;;;2.8;;
53674;SDS011;39574;50.534;8.500;2023-08-06T01:31:32;5.7;;;2.7;;
53674;SDS011;39574;50.534;8.500;2023-08-06T01:36:31;6.2;;;2.6;;
53674;SDS011;39574;50.534;8.500;2023-08-06T01:41:30;6.4;;;2.8;;
53674;SDS011;39574;50.534;8.500;2023-08-06T01:46:29;6.6;;;2.8;;
53674;SDS011;39574;50.534;8.500;2023-08-06T01:51:29;6.5;;;3.0;;
53674;SDS011;39574;50.534;8.500;2023-08-06T01:56:28;6.4;;;3.2;;
53674;SDS011;39574;50.534;8.500;2023-08-06T02:01:27;7.2;;;3.2;;
53674;SDS011;39574;50.534;8.500;2023-08-06T02:06:26;7.6;;;3.4;;
53674;SDS011;39574;50.534;8.500;2023-08-06T02:11:26;7.7;;;3.4;;
53674;SDS011;39574;50.534;8.500;2023-08-06T02:16:25;7.7;;;3.6;;
53674;SDS011;39574;50.534;8.500;2023-08-06T02:21:24;7.1;;;3.5;;
53674;SDS011;39574;50.534;8.500;2023-08-06T02:26:24;7.1;;;3.5;;
53674;SDS011;39574;50.534;8.500;2023-08-06T02:31:23;7.0;;;3.5;;
53674;SDS011;39574;50.534;8.500;2023-08-06T02:36:22;7.1;;;3.5;;
53674;SDS011;39574;50.534;8.500;2023-08-06T02:41:22;7.2;;;3.6;;
53674;SDS011;39574;50.534;8.500;2023-08-06T02:46:21;7.8;;;3.6;;
53674;SDS011;39574;50.534;8.500;2023-08-06T02:51:20;8.1;;;3.7;;
53674;SDS011;39574;50.534;8.500;2023-08-06T02:56:19;8.2;;;3.7;;
53674;SDS011;39574;50.534;8.500;2023-08-06T03:01:19;7.6;;;3.8;;
53674;SDS011;39574;50.534;8.500;2023-08-06T03:06:18;7.6;;;3.8;;
53674;SDS011;39574;50.534;8.500;2023-08-06T03:11:18;7.0;;;3.6;;
53674;SDS011;39574;50.534;8.500;2023-08-06T03:16:17;7.3;;;3.7;;
53674;SDS011;39574;50.534;8.500;2023-08-06T03:21:16;7.2;;;3.8;;
53674;SDS011;39574;50.534;8.500;2023-08-06T03:26:15;7.1;;;3.8;;
53674;SDS011;39574;50.534;8.500;2023-08-06T03:31:15;6.9;;;3.9;;
53674;SDS011;39574;50.534;8.500;2023-08-06T03:36:14;6.8;;;3.8;;
53674;SDS011;39574;50.534;8.500;2023-08-06T03:41:13;7.6;;;4.0;;
53674;SDS011;39574;50.534;8.500;2023-08-06T03:46:13;7.9;;;4.1;;
53674;SDS011;39574;50.534;8.500;2023-08-06T03:51:12;7.8;;;4.0;;
53674;SDS011;39574;50.534;8.500;2023-08-06T03:56:11;7.9;;;4.1;;
53674;SDS011;39574;50.534;8.500;2023-08-06T04:01:11;8.0;;;4.2;;
53674;SDS011;39574;50.534;8.500;2023-08-06T04:06:10;7.8;;;4.0;;
53674;SDS011;39574;50.534;8.500;2023-08-06T04:11:09;7.5;;;3.9;;
53674;SDS011;39574;50.534;8.500;2023-08-06T04:16:09;7.4;;;3.8;;
53674;SDS011;39574;50.534;8.500;2023-08-06T04:21:08;7.6;;;3.7;;
53674;SDS011;39574;50.534;8.500;2023-08-06T04:26:07;7.7;;;3.7;;
53674;SDS011;39574;50.534;8.500;2023-08-06T04:31:07;8.2;;;3.7;;
53674;SDS011;39574;50.534;8.500;2023-08-06T04:36:06;7.3;;;3.6;;
53674;SDS011;39574;50.534;8.500;2023-08-06T04:41:05;7.1;;;3.5;;
53674;SDS011;39574;50.534;8.500;2023-08-06T04:46:05;6.9;;;3.5;;
53674;SDS011;39574;50.534;8.500;2023-08-06T04:51:04;6.8;;;3.5;;
53674;SDS011;39574;50.534;8.500;2023-08-06T04:56:03;6.9;;;3.4;;
53674;SDS011;39574;50.534;8.500;2023-08-06T05:01:03;6.5;;;3.3;;
53674;SDS011;39574;50.534;8.500;2023-08-06T05:06:02;7.3;;;3.4;;
53674;SDS011;39574;50.534;8.500;2023-08-06T05:11:02;6.7;;;3.3;;
53674;SDS011;39574;50.534;8.500;2023-08-06T05:16:01;6.4;;;3.3;;
53674;SDS011;39574;50.534;8.500;2023-08-06T05:21:00;7.0;;;3.5;;
53674;SDS011;39574;50.534;8.500;2023-08-06T05:26:00;6.8;;;3.4;;
53674;SDS011;39574;50.534;8.500;2023-08-06T05:31:02;7.2;;;3.3;;
53674;SDS011;39574;50.534;8.500;2023-08-06T05:35:58;6.9;;;3.1;;
53674;SDS011;39574;50.534;8.500;2023-08-06T05:40:57;7.4;;;3.0;;
53674;SDS011;39574;50.534;8.500;2023-08-06T05:45:57;7.3;;;3.1;;
53674;SDS011;39574;50.534;8.500;2023-08-06T05:50:56;7.3;;;3.1;;
53674;SDS011;39574;50.534;8.500;2023-08-06T05:55:56;7.4;;;3.1;;
53674;SDS011;39574;50.534;8.500;2023-08-06T06:00:55;6.7;;;3.0;;
53674;SDS011;39574;50.534;8.500;2023-08-06T06:05:55;5.9;;;2.9;;
53674;SDS011;39574;50.534;8.500;2023-08-06T06:10:54;6.1;;;2.8;;
53674;SDS011;39574;50.534;8.500;2023-08-06T06:15:54;5.8;;;2.8;;
53674;SDS011;39574;50.534;8.500;2023-08-06T06:20:52;5.6;;;2.5;;
53674;SDS011;39574;50.534;8.500;2023-08-06T06:25:52;5.9;;;2.3;;
53674;SDS011;39574;50.534;8.500;2023-08-06T06:30:51;5.5;;;2.2;;
53674;SDS011;39574;50.534;8.500;2023-08-06T06:35:50;5.2;;;2.0;;
53674;SDS011;39574;50.534;8.500;2023-08-06T06:40:53;4.8;;;1.9;;
53674;SDS011;39574;50.534;8.500;2023-08-06T06:45:52;4.8;;;1.7;;
53674;SDS011;39574;50.534;8.500;2023-08-06T06:50:48;4.8;;;1.7;;
53674;SDS011;39574;50.534;8.500;2023-08-06T06:55:47;5.7;;;1.9;;
53674;SDS011;39574;50.534;8.500;2023-08-06T07:00:47;5.7;;;2.0;;
53674;SDS011;39574;50.534;8.500;2023-08-06T07:05:46;5.3;;;2.0;;
53674;SDS011;39574;50.534;8.500;2023-08-06T07:10:45;5.2;;;2.0;;
53674;SDS011;39574;50.534;8.500;2023-08-06T07:15:45;4.9;;;2.0;;
53674;SDS011;39574;50.534;8.500;2023-08-06T07:20:47;4.8;;;1.8;;
53674;SDS011;39574;50.534;8.500;2023-08-06T07:25:43;4.4;;;1.7;;
53674;SDS011;39574;50.534;8.500;2023-08-06T07:30:43;3.8;;;1.5;;
53674;SDS011;39574;50.534;8.500;2023-08-06T07:40:41;3.8;;;1.2;;
53674;SDS011;39574;50.534;8.500;2023-08-06T07:45:40;3.5;;;1.1;;
53674;SDS011;39574;50.534;8.500;2023-08-06T07:50:40;3.3;;;1.1;;
53674;SDS011;39574;50.534;8.500;2023-08-06T07:55:39;3.1;;;1.0;;
53674;SDS011;39574;50.534;8.500;2023-08-06T08:00:38;3.0;;;1.0;;
53674;SDS011;39574;50.534;8.500;2023-08-06T08:05:38;3.0;;;1.0;;
53674;SDS011;39574;50.534;8.500;2023-08-06T08:10:37;2.9;;;0.9;;
53674;SDS011;39574;50.534;8.500;2023-08-06T08:15:36;2.9;;;0.8;;
53674;SDS011;39574;50.534;8.500;2023-08-06T08:20:36;2.8;;;0.8;;
53674;SDS011;39574;50.534;8.500;2023-08-06T08:25:35;2.7;;;0.8;;
53674;SDS011;39574;50.534;8.500;2023-08-06T08:30:35;2.8;;;0.9;;
53674;SDS011;39574;50.534;8.500;2023-08-06T08:35:34;2.9;;;0.9;;
53674;SDS011;39574;50.534;8.500;2023-08-06T08:40:33;3.0;;;0.9;;
53674;SDS011;39574;50.534;8.500;2023-08-06T08:45:33;3.1;;;0.9;;
53674;SDS011;39574;50.534;8.500;2023-08-06T08:50:32;3.1;;;0.9;;
53674;SDS011;39574;50.534;8.500;2023-08-06T08:55:31;3.1;;;1.0;;
53674;SDS011;39574;50.534;8.500;2023-08-06T09:00:31;3.1;;;1.1;;
53674;SDS011;39574;50.534;8.500;2023-08-06T09:05:30;3.1;;;1.1;;
53674;SDS011;39574;50.534;8.500;2023-08-06T09:10:30;3.3;;;1.1;;
53674;SDS011;39574;50.534;8.500;2023-08-06T09:15:29;3.3;;;1.0;;
53674;SDS011;39574;50.534;8.500;2023-08-06T09:20:28;3.5;;;1.0;;
53674;SDS011;39574;50.534;8.500;2023-08-06T09:25:28;3.6;;;1.0;;
53674;SDS011;39574;50.534;8.500;2023-08-06T09:30:29;3.3;;;1.0;;
53674;SDS011;39574;50.534;8.500;2023-08-06T09:35:28;3.5;;;1.1;;
53674;SDS011;39574;50.534;8.500;2023-08-06T09:40:27;3.3;;;1.0;;
53674;SDS011;39574;50.534;8.500;2023-08-06T09:45:28;3.3;;;1.1;;
53674;SDS011;39574;50.534;8.500;2023-08-06T09:50:28;3.7;;;1.1;;
53674;SDS011;39574;50.534;8.500;2023-08-06T09:55:25;3.5;;;1.0;;
53674;SDS011;39574;50.534;8.500;2023-08-06T10:00:24;3.4;;;1.0;;
53674;SDS011;39574;50.534;8.500;2023-08-06T10:05:23;3.5;;;1.0;;
53674;SDS011;39574;50.534;8.500;2023-08-06T10:10:23;3.3;;;1.1;;
53674;SDS011;39574;50.534;8.500;2023-08-06T10:15:23;3.1;;;1.1;;
53674;SDS011;39574;50.534;8.500;2023-08-06T10:20:21;3.5;;;1.1;;
53674;SDS011;39574;50.534;8.500;2023-08-06T10:25:21;3.4;;;1.0;;
53674;SDS011;39574;50.534;8.500;2023-08-06T10:30:21;3.4;;;1.1;;
53674;SDS011;39574;50.534;8.500;2023-08-06T10:35:27;3.2;;;1.0;;
53674;SDS011;39574;50.534;8.500;2023-08-06T10:40:20;3.5;;;1.1;;
53674;SDS011;39574;50.534;8.500;2023-08-06T10:45:19;3.5;;;1.2;;
53674;SDS011;39574;50.534;8.500;2023-08-06T10:50:18;3.4;;;1.2;;
53674;SDS011;39574;50.534;8.500;2023-08-06T10:55:23;3.8;;;1.4;;
53674;SDS011;39574;50.534;8.500;2023-08-06T11:00:16;3.7;;;1.3;;
53674;SDS011;39574;50.534;8.500;2023-08-06T11:05:16;3.6;;;1.2;;
53674;SDS011;39574;50.534;8.500;2023-08-06T11:10:15;3.8;;;1.3;;
53674;SDS011;39574;50.534;8.500;2023-08-06T11:15:15;3.6;;;1.2;;
53674;SDS011;39574;50.534;8.500;2023-08-06T11:20:14;3.7;;;1.3;;
53674;SDS011;39574;50.534;8.500;2023-08-06T11:25:13;3.7;;;1.2;;
53674;SDS011;39574;50.534;8.500;2023-08-06T11:30:14;3.4;;;1.2;;
53674;SDS011;39574;50.534;8.500;2023-08-06T11:35:13;3.4;;;1.3;;
53674;SDS011;39574;50.534;8.500;2023-08-06T11:40:13;3.2;;;1.1;;
53674;SDS011;39574;50.534;8.500;2023-08-06T11:45:11;3.1;;;1.1;;
53674;SDS011;39574;50.534;8.500;2023-08-06T11:50:21;3.2;;;1.0;;
53674;SDS011;39574;50.534;8.500;2023-08-06T11:55:10;3.3;;;1.1;;
53674;SDS011;39574;50.534;8.500;2023-08-06T12:00:11;3.6;;;1.1;;
53674;SDS011;39574;50.534;8.500;2023-08-06T12:05:10;3.8;;;1.0;;
53674;SDS011;39574;50.534;8.500;2023-08-06T12:10:09;3.6;;;1.0;;
53674;SDS011;39574;50.534;8.500;2023-08-06T12:15:08;4.3;;;1.0;;
53674;SDS011;39574;50.534;8.500;2023-08-06T12:20:08;4.4;;;1.1;;
53674;SDS011;39574;50.534;8.500;2023-08-06T12:25:07;4.7;;;1.1;;
53674;SDS011;39574;50.534;8.500;2023-08-06T12:30:06;4.3;;;1.1;;
53674;SDS011;39574;50.534;8.500;2023-08-06T12:35:05;4.2;;;1.0;;
53674;SDS011;39574;50.534;8.500;2023-08-06T12:40:04;3.9;;;1.0;;
53674;SDS011;39574;50.534;8.500;2023-08-06T12:45:03;3.8;;;1.1;;
53674;SDS011;39574;50.534;8.500;2023-08-06T12:50:02;4.0;;;1.1;;
53674;SDS011;39574;50.534;8.500;2023-08-06T12:55:01;4.0;;;1.1;;
53674;SDS011;39574;50.534;8.500;2023-08-06T13:00:01;3.9;;;1.1;;
53674;SDS011;39574;50.534;8.500;2023-08-06T13:05:00;3.6;;;1.1;;
53674;SDS011;39574;50.534;8.500;2023-08-06T13:09:59;3.8;;;1.2;;
53674;SDS011;39574;50.534;8.500;2023-08-06T13:14:58;3.5;;;1.2;;
53674;SDS011;39574;50.534;8.500;2023-08-06T13:19:57;3.5;;;1.3;;
53674;SDS011;39574;50.534;8.500;2023-08-06T13:24:57;3.4;;;1.3;;
53674;SDS011;39574;50.534;8.500;2023-08-06T13:29:56;3.4;;;1.4;;
53674;SDS011;39574;50.534;8.500;2023-08-06T13:34:55;4.0;;;1.4;;
53674;SDS011;39574;50.534;8.500;2023-08-06T13:39:54;4.4;;;1.4;;
53674;SDS011;39574;50.534;8.500;2023-08-06T13:44:53;4.2;;;1.3;;
53674;SDS011;39574;50.534;8.500;2023-08-06T13:49:52;4.5;;;1.3;;
53674;SDS011;39574;50.534;8.500;2023-08-06T13:54:51;4.2;;;1.3;;
53674;SDS011;39574;50.534;8.500;2023-08-06T13:59:51;3.9;;;1.3;;
53674;SDS011;39574;50.534;8.500;2023-08-06T14:04:51;4.1;;;1.4;;
53674;SDS011;39574;50.534;8.500;2023-08-06T14:09:49;4.4;;;1.4;;
53674;SDS011;39574;50.534;8.500;2023-08-06T14:14:48;4.8;;;1.5;;
53674;SDS011;39574;50.534;8.500;2023-08-06T14:19:47;5.6;;;1.6;;
53674;SDS011;39574;50.534;8.500;2023-08-06T14:24:47;5.3;;;1.6;;
53674;SDS011;39574;50.534;8.500;2023-08-06T14:29:46;5.0;;;1.6;;
53674;SDS011;39574;50.534;8.500;2023-08-06T14:34:45;4.6;;;1.6;;
53674;SDS011;39574;50.534;8.500;2023-08-06T14:39:44;4.1;;;1.5;;
53674;SDS011;39574;50.534;8.500;2023-08-06T14:44:43;4.4;;;1.4;;
53674;SDS011;39574;50.534;8.500;2023-08-06T14:49:43;4.5;;;1.5;;
53674;SDS011;39574;50.534;8.500;2023-08-06T14:54:42;4.5;;;1.4;;
53674;SDS011;39574;50.534;8.500;2023-08-06T14:59:41;5.0;;;1.6;;
53674;SDS011;39574;50.534;8.500;2023-08-06T15:04:40;4.6;;;1.6;;
53674;SDS011;39574;50.534;8.500;2023-08-06T15:09:39;4.7;;;1.5;;
53674;SDS011;39574;50.534;8.500;2023-08-06T15:14:39;4.0;;;1.3;;
53674;SDS011;39574;50.534;8.500;2023-08-06T15:19:38;3.9;;;1.2;;
53674;SDS011;39574;50.534;8.500;2023-08-06T15:24:37;3.8;;;1.1;;
53674;SDS011;39574;50.534;8.500;2023-08-06T15:29:36;3.8;;;1.2;;
53674;SDS011;39574;50.534;8.500;2023-08-06T15:34:35;4.0;;;1.4;;
53674;SDS011;39574;50.534;8.500;2023-08-06T15:39:35;3.9;;;1.4;;
53674;SDS011;39574;50.534;8.500;2023-08-06T15:44:34;3.6;;;1.3;;
53674;SDS011;39574;50.534;8.500;2023-08-06T15:49:33;3.8;;;1.2;;
53674;SDS011;39574;50.534;8.500;2023-08-06T15:54:32;4.2;;;1.2;;
53674;SDS011;39574;50.534;8.500;2023-08-06T15:59:32;4.1;;;1.4;;
53674;SDS011;39574;50.534;8.500;2023-08-06T16:04:30;3.9;;;1.5;;
53674;SDS011;39574;50.534;8.500;2023-08-06T16:09:30;3.9;;;1.6;;
53674;SDS011;39574;50.534;8.500;2023-08-06T16:14:29;4.5;;;1.8;;
53674;SDS011;39574;50.534;8.500;2023-08-06T16:19:28;4.7;;;1.8;;
53674;SDS011;39574;50.534;8.500;2023-08-06T16:24:27;4.3;;;1.7;;
53674;SDS011;39574;50.534;8.500;2023-08-06T16:29:26;4.6;;;1.8;;
53674;SDS011;39574;50.534;8.500;2023-08-06T16:34:25;5.3;;;1.9;;
53674;SDS011;39574;50.534;8.500;2023-08-06T16:39:25;5.5;;;1.9;;
53674;SDS011;39574;50.534;8.500;2023-08-06T16:44:24;5.7;;;1.9;;
53674;SDS011;39574;50.534;8.500;2023-08-06T16:49:23;5.9;;;2.0;;
53674;SDS011;39574;50.534;8.500;2023-08-06T16:54:22;5.3;;;1.9;;
53674;SDS011;39574;50.534;8.500;2023-08-06T16:59:21;5.3;;;1.8;;
53674;SDS011;39574;50.534;8.500;2023-08-06T17:04:21;5.1;;;1.7;;
53674;SDS011;39574;50.534;8.500;2023-08-06T17:09:20;4.7;;;1.7;;
53674;SDS011;39574;50.534;8.500;2023-08-06T17:14:19;5.1;;;1.6;;
53674;SDS011;39574;50.534;8.500;2023-08-06T17:19:18;5.3;;;1.7;;
53674;SDS011;39574;50.534;8.500;2023-08-06T17:24:17;4.9;;;1.7;;
53674;SDS011;39574;50.534;8.500;2023-08-06T17:29:16;4.6;;;1.7;;
53674;SDS011;39574;50.534;8.500;2023-08-06T17:34:16;4.8;;;1.7;;
53674;SDS011;39574;50.534;8.500;2023-08-06T17:39:15;5.5;;;1.7;;
53674;SDS011;39574;50.534;8.500;2023-08-06T17:44:14;5.0;;;1.8;;
53674;SDS011;39574;50.534;8.500;2023-08-06T17:49:13;4.9;;;1.7;;
53674;SDS011;39574;50.534;8.500;2023-08-06T17:54:13;4.6;;;1.7;;
53674;SDS011;39574;50.534;8.500;2023-08-06T17:59:12;4.2;;;1.7;;
53674;SDS011;39574;50.534;8.500;2023-08-06T18:04:11;4.1;;;1.8;;
53674;SDS011;39574;50.534;8.500;2023-08-06T18:09:10;4.1;;;1.6;;
53674;SDS011;39574;50.534;8.500;2023-08-06T18:14:10;4.4;;;1.5;;
53674;SDS011;39574;50.534;8.500;2023-08-06T18:19:08;4.7;;;1.5;;
53674;SDS011;39574;50.534;8.500;2023-08-06T18:24:08;4.4;;;1.4;;
53674;SDS011;39574;50.534;8.500;2023-08-06T18:29:07;4.0;;;1.4;;
53674;SDS011;39574;50.534;8.500;2023-08-06T18:34:06;3.8;;;1.3;;
53674;SDS011;39574;50.534;8.500;2023-08-06T18:39:05;3.9;;;1.4;;
53674;SDS011;39574;50.534;8.500;2023-08-06T18:44:08;3.9;;;1.3;;
53674;SDS011;39574;50.534;8.500;2023-08-06T18:49:04;4.3;;;1.4;;
53674;SDS011;39574;50.534;8.500;2023-08-06T18:54:03;4.7;;;1.4;;
53674;SDS011;39574;50.534;8.500;2023-08-06T18:59:02;4.3;;;1.4;;
53674;SDS011;39574;50.534;8.500;2023-08-06T19:04:01;4.2;;;1.4;;
53674;SDS011;39574;50.534;8.500;2023-08-06T19:09:00;4.0;;;1.5;;
53674;SDS011;39574;50.534;8.500;2023-08-06T19:14:00;4.0;;;1.5;;
53674;SDS011;39574;50.534;8.500;2023-08-06T19:18:59;4.1;;;1.6;;
53674;SDS011;39574;50.534;8.500;2023-08-06T19:23:58;4.3;;;1.5;;
53674;SDS011;39574;50.534;8.500;2023-08-06T19:28:57;4.4;;;1.5;;
53674;SDS011;39574;50.534;8.500;2023-08-06T19:33:56;4.4;;;1.5;;
53674;SDS011;39574;50.534;8.500;2023-08-06T19:38:56;4.0;;;1.5;;
53674;SDS011;39574;50.534;8.500;2023-08-06T19:43:55;4.2;;;1.5;;
53674;SDS011;39574;50.534;8.500;2023-08-06T19:48:54;4.0;;;1.5;;
53674;SDS011;39574;50.534;8.500;2023-08-06T19:53:53;3.9;;;1.4;;
53674;SDS011;39574;50.534;8.500;2023-08-06T19:58:52;4.3;;;1.5;;
53674;SDS011;39574;50.534;8.500;2023-08-06T20:03:51;4.2;;;1.5;;
53674;SDS011;39574;50.534;8.500;2023-08-06T20:08:50;4.5;;;1.4;;
53674;SDS011;39574;50.534;8.500;2023-08-06T20:13:50;4.5;;;1.4;;
53674;SDS011;39574;50.534;8.500;2023-08-06T20:18:49;4.1;;;1.3;;
53674;SDS011;39574;50.534;8.500;2023-08-06T20:23:48;4.5;;;1.4;;
53674;SDS011;39574;50.534;8.500;2023-08-06T20:28:47;20.8;;;2.1;;
53674;SDS011;39574;50.534;8.500;2023-08-06T20:33:46;16.9;;;1.9;;
53674;SDS011;39574;50.534;8.500;2023-08-06T20:38:45;12.6;;;1.7;;
53674;SDS011;39574;50.534;8.500;2023-08-06T20:43:45;8.2;;;1.5;;
53674;SDS011;39574;50.534;8.500;2023-08-06T20:48:44;3.6;;;1.2;;
53674;SDS011;39574;50.534;8.500;2023-08-06T20:53:43;3.4;;;1.1;;
53674;SDS011;39574;50.534;8.500;2023-08-06T20:58:42;3.2;;;1.0;;
53674;SDS011;39574;50.534;8.500;2023-08-06T21:03:41;3.3;;;1.0;;
53674;SDS011;39574;50.534;8.500;2023-08-06T21:08:40;4.0;;;1.0;;
53674;SDS011;39574;50.534;8.500;2023-08-06T21:13:39;5.0;;;1.0;;
53674;SDS011;39574;50.534;8.500;2023-08-06T21:18:39;4.6;;;1.0;;
53674;SDS011;39574;50.534;8.500;2023-08-06T21:23:38;4.2;;;1.1;;
53674;SDS011;39574;50.534;8.500;2023-08-06T21:28:37;3.8;;;1.1;;
53674;SDS011;39574;50.534;8.500;2023-08-06T21:33:36;3.6;;;1.2;;
53674;SDS011;39574;50.534;8.500;2023-08-06T21:38:37;3.9;;;1.2;;
53674;SDS011;39574;50.534;8.500;2023-08-06T21:43:35;3.7;;;1.1;;
53674;SDS011;39574;50.534;8.500;2023-08-06T21:48:35;3.7;;;1.0;;
53674;SDS011;39574;50.534;8.500;2023-08-06T21:53:33;3.7;;;1.0;;
53674;SDS011;39574;50.534;8.500;2023-08-06T21:58:32;3.6;;;1.0;;
53674;SDS011;39574;50.534;8.500;2023-08-06T22:03:31;3.5;;;1.0;;
53674;SDS011;39574;50.534;8.500;2023-08-06T22:08:30;3.6;;;1.1;;
53674;SDS011;39574;50.534;8.500;2023-08-06T22:13:29;4.0;;;1.1;;
53674;SDS011;39574;50.534;8.500;2023-08-06T22:18:28;4.2;;;1.2;;
53674;SDS011;39574;50.534;8.500;2023-08-06T22:23:27;4.5;;;1.2;;
53674;SDS011;39574;50.534;8.500;2023-08-06T22:28:27;4.7;;;1.3;;
53674;SDS011;39574;50.534;8.500;2023-08-06T22:33:26;6.6;;;1.5;;
53674;SDS011;39574;50.534;8.500;2023-08-06T22:38:25;6.8;;;1.5;;
53674;SDS011;39574;50.534;8.500;2023-08-06T22:43:24;6.5;;;1.4;;
53674;SDS011;39574;50.534;8.500;2023-08-06T22:48:23;5.9;;;1.4;;
53674;SDS011;39574;50.534;8.500;2023-08-06T22:53:22;5.3;;;1.5;;
53674;SDS011;39574;50.534;8.500;2023-08-06T22:58:21;5.5;;;1.5;;
53674;SDS011;39574;50.534;8.500;2023-08-06T23:03:21;5.1;;;1.5;;
53674;SDS011;39574;50.534;8.500;2023-08-06T23:08:20;4.9;;;1.4;;
53674;SDS011;39574;50.534;8.500;2023-08-06T23:13:19;4.8;;;1.4;;
53674;SDS011;39574;50.534;8.500;2023-08-06T23:18:18;4.5;;;1.6;;
53674;SDS011;39574;50.534;8.500;2023-08-06T23:23:17;4.7;;;1.9;;
53674;SDS011;39574;50.534;8.500;2023-08-06T23:28:16;5.4;;;2.2;;
53674;SDS011;39574;50.534;8.500;2023-08-06T23:33:15;5.7;;;2.5;;
53674;SDS011;39574;50.534;8.500;2023-08-06T23:38:14;5.9;;;2.9;;
53674;SDS011;39574;50.534;8.500;2023-08-06T23:43:14;6.5;;;3.1;;
53674;SDS011;39574;50.534;8.500;2023-08-06T23:48:13;6.7;;;3.1;;
53674;SDS011;39574;50.534;8.500;2023-08-06T23:53:12;6.2;;;3.0;;
53674;SDS011;39574;50.534;8.500;2023-08-06T23:58:11;5.8;;;2.7;;
